sensor_id;sensor_type;location;lat;lon;timestamp;temperature;humidity
80743;SHT31;70142;50.894;6.052;2023-08-01T00:02:08;18.60;87.15
80743;SHT31;70142;50.894;6.052;2023-08-01T00:04:43;18.53;87.66
80743;SHT31;70142;50.894;6.052;2023-08-01T00:07:16;18.48;87.67
80743;SHT31;70142;50.894;6.052;2023-08-01T00:09:49;18.31;88.14
80743;SHT31;70142;50.894;6.052;2023-08-01T00:12:24;18.39;87.98
80743;SHT31;70142;50.894;6.052;2023-08-01T00:14:57;18.39;87.89
80743;SHT31;70142;50.894;6.052;2023-08-01T00:17:30;18.33;88.45
80743;SHT31;70142;50.894;6.052;2023-08-01T00:20:06;18.15;88.91
80743;SHT31;70142;50.894;6.052;2023-08-01T00:22:40;18.02;88.95
80743;SHT31;70142;50.894;6.052;2023-08-01T00:25:13;17.91;88.81
80743;SHT31;70142;50.894;6.052;2023-08-01T00:27:47;17.77;88.29
80743;SHT31;70142;50.894;6.052;2023-08-01T00:30:22;17.60;89.13
80743;SHT31;70142;50.894;6.052;2023-08-01T00:32:56;17.47;89.15
80743;SHT31;70142;50.894;6.052;2023-08-01T00:35:30;17.46;88.90
80743;SHT31;70142;50.894;6.052;2023-08-01T00:38:04;17.40;89.43
80743;SHT31;70142;50.894;6.052;2023-08-01T00:40:37;17.37;89.42
80743;SHT31;70142;50.894;6.052;2023-08-01T00:43:10;17.27;89.61
80743;SHT31;70142;50.894;6.052;2023-08-01T00:45:45;17.31;89.64
80743;SHT31;70142;50.894;6.052;2023-08-01T00:48:18;17.31;89.68
80743;SHT31;70142;50.894;6.052;2023-08-01T00:50:53;17.30;89.71
80743;SHT31;70142;50.894;6.052;2023-08-01T00:53:31;17.34;89.49
80743;SHT31;70142;50.894;6.052;2023-08-01T00:56:05;17.40;89.43
80743;SHT31;70142;50.894;6.052;2023-08-01T00:58:38;17.36;89.38
80743;SHT31;70142;50.894;6.052;2023-08-01T01:01:11;17.43;89.24
80743;SHT31;70142;50.894;6.052;2023-08-01T01:03:45;17.40;89.14
80743;SHT31;70142;50.894;6.052;2023-08-01T01:06:23;17.39;88.74
80743;SHT31;70142;50.894;6.052;2023-08-01T01:08:58;17.40;88.46
80743;SHT31;70142;50.894;6.052;2023-08-01T01:11:31;17.30;88.66
80743;SHT31;70142;50.894;6.052;2023-08-01T01:14:06;17.31;88.47
80743;SHT31;70142;50.894;6.052;2023-08-01T01:16:40;17.33;88.52
80743;SHT31;70142;50.894;6.052;2023-08-01T01:19:14;17.26;88.80
80743;SHT31;70142;50.894;6.052;2023-08-01T01:21:50;17.33;88.55
80743;SHT31;70142;50.894;6.052;2023-08-01T01:24:25;17.34;87.95
80743;SHT31;70142;50.894;6.052;2023-08-01T01:27:01;17.31;88.36
80743;SHT31;70142;50.894;6.052;2023-08-01T01:29:36;17.23;88.43
80743;SHT31;70142;50.894;6.052;2023-08-01T01:32:13;17.29;88.71
80743;SHT31;70142;50.894;6.052;2023-08-01T01:34:48;17.27;88.20
80743;SHT31;70142;50.894;6.052;2023-08-01T01:37:23;17.20;88.37
80743;SHT31;70142;50.894;6.052;2023-08-01T01:39:57;17.15;88.68
80743;SHT31;70142;50.894;6.052;2023-08-01T01:42:30;17.19;88.37
80743;SHT31;70142;50.894;6.052;2023-08-01T01:45:04;17.15;88.22
80743;SHT31;70142;50.894;6.052;2023-08-01T01:47:37;17.16;88.36
80743;SHT31;70142;50.894;6.052;2023-08-01T01:50:11;17.15;88.16
80743;SHT31;70142;50.894;6.052;2023-08-01T01:52:46;17.15;87.98
80743;SHT31;70142;50.894;6.052;2023-08-01T01:55:19;17.09;87.75
80743;SHT31;70142;50.894;6.052;2023-08-01T01:57:53;17.10;88.13
80743;SHT31;70142;50.894;6.052;2023-08-01T02:00:26;17.20;88.15
80743;SHT31;70142;50.894;6.052;2023-08-01T02:02:59;17.23;88.17
80743;SHT31;70142;50.894;6.052;2023-08-01T02:05:34;17.19;88.13
80743;SHT31;70142;50.894;6.052;2023-08-01T02:08:09;17.12;87.44
80743;SHT31;70142;50.894;6.052;2023-08-01T02:10:42;17.02;87.68
80743;SHT31;70142;50.894;6.052;2023-08-01T02:13:16;16.99;87.88
80743;SHT31;70142;50.894;6.052;2023-08-01T02:15:49;16.96;87.94
80743;SHT31;70142;50.894;6.052;2023-08-01T02:18:22;17.03;88.16
80743;SHT31;70142;50.894;6.052;2023-08-01T02:20:56;17.15;88.05
80743;SHT31;70142;50.894;6.052;2023-08-01T02:23:30;17.00;87.20
80743;SHT31;70142;50.894;6.052;2023-08-01T02:26:05;17.00;87.29
80743;SHT31;70142;50.894;6.052;2023-08-01T02:28:40;16.92;87.15
80743;SHT31;70142;50.894;6.052;2023-08-01T02:31:13;16.89;87.44
80743;SHT31;70142;50.894;6.052;2023-08-01T02:33:47;16.76;87.07
80743;SHT31;70142;50.894;6.052;2023-08-01T02:36:20;16.72;87.07
80743;SHT31;70142;50.894;6.052;2023-08-01T02:38:55;16.73;87.75
80743;SHT31;70142;50.894;6.052;2023-08-01T02:41:28;16.68;87.65
80743;SHT31;70142;50.894;6.052;2023-08-01T02:44:01;16.69;87.54
80743;SHT31;70142;50.894;6.052;2023-08-01T02:46:35;16.64;87.21
80743;SHT31;70142;50.894;6.052;2023-08-01T02:49:08;16.54;87.30
80743;SHT31;70142;50.894;6.052;2023-08-01T02:51:41;16.48;87.39
80743;SHT31;70142;50.894;6.052;2023-08-01T02:54:16;16.52;87.30
80743;SHT31;70142;50.894;6.052;2023-08-01T02:56:49;16.49;87.42
80743;SHT31;70142;50.894;6.052;2023-08-01T02:59:23;16.54;87.21
80743;SHT31;70142;50.894;6.052;2023-08-01T03:01:56;16.48;87.00
80743;SHT31;70142;50.894;6.052;2023-08-01T03:04:29;16.45;86.97
80743;SHT31;70142;50.894;6.052;2023-08-01T03:07:17;16.48;86.75
80743;SHT31;70142;50.894;6.052;2023-08-01T03:09:52;16.49;86.90
80743;SHT31;70142;50.894;6.052;2023-08-01T03:12:26;16.36;86.84
80743;SHT31;70142;50.894;6.052;2023-08-01T03:15:00;16.34;87.01
80743;SHT31;70142;50.894;6.052;2023-08-01T03:17:33;16.29;87.07
80743;SHT31;70142;50.894;6.052;2023-08-01T03:20:07;16.25;87.09
80743;SHT31;70142;50.894;6.052;2023-08-01T03:22:43;16.34;87.09
80743;SHT31;70142;50.894;6.052;2023-08-01T03:25:17;16.28;86.99
80743;SHT31;70142;50.894;6.052;2023-08-01T03:27:51;16.28;87.10
80743;SHT31;70142;50.894;6.052;2023-08-01T03:30:24;16.25;87.04
80743;SHT31;70142;50.894;6.052;2023-08-01T03:33:01;16.36;86.97
80743;SHT31;70142;50.894;6.052;2023-08-01T03:35:34;16.38;86.74
80743;SHT31;70142;50.894;6.052;2023-08-01T03:38:07;16.29;86.72
80743;SHT31;70142;50.894;6.052;2023-08-01T03:40:42;16.38;87.04
80743;SHT31;70142;50.894;6.052;2023-08-01T03:43:15;16.28;86.89
80743;SHT31;70142;50.894;6.052;2023-08-01T03:45:49;16.29;86.85
80743;SHT31;70142;50.894;6.052;2023-08-01T03:48:22;16.31;86.85
80743;SHT31;70142;50.894;6.052;2023-08-01T03:50:55;16.28;86.95
80743;SHT31;70142;50.894;6.052;2023-08-01T03:53:31;16.22;86.98
80743;SHT31;70142;50.894;6.052;2023-08-01T03:56:05;16.25;86.82
80743;SHT31;70142;50.894;6.052;2023-08-01T03:58:39;16.26;86.89
80743;SHT31;70142;50.894;6.052;2023-08-01T04:01:13;16.20;86.76
80743;SHT31;70142;50.894;6.052;2023-08-01T04:03:47;16.18;86.86
80743;SHT31;70142;50.894;6.052;2023-08-01T04:06:20;16.14;86.83
80743;SHT31;70142;50.894;6.052;2023-08-01T04:08:53;16.22;86.71
80743;SHT31;70142;50.894;6.052;2023-08-01T04:11:29;16.21;86.68
80743;SHT31;70142;50.894;6.052;2023-08-01T04:14:02;16.20;86.61
80743;SHT31;70142;50.894;6.052;2023-08-01T04:16:36;16.08;86.70
80743;SHT31;70142;50.894;6.052;2023-08-01T04:19:09;16.18;86.63
80743;SHT31;70142;50.894;6.052;2023-08-01T04:21:43;16.18;86.22
80743;SHT31;70142;50.894;6.052;2023-08-01T04:24:16;16.28;86.11
80743;SHT31;70142;50.894;6.052;2023-08-01T04:26:50;16.36;85.87
80743;SHT31;70142;50.894;6.052;2023-08-01T04:29:24;16.42;86.26
80743;SHT31;70142;50.894;6.052;2023-08-01T04:31:57;16.48;85.61
80743;SHT31;70142;50.894;6.052;2023-08-01T04:34:33;16.45;85.70
80743;SHT31;70142;50.894;6.052;2023-08-01T04:37:06;16.48;85.68
80743;SHT31;70142;50.894;6.052;2023-08-01T04:39:39;16.45;85.57
80743;SHT31;70142;50.894;6.052;2023-08-01T04:42:14;16.41;85.79
80743;SHT31;70142;50.894;6.052;2023-08-01T04:44:47;16.44;85.48
80743;SHT31;70142;50.894;6.052;2023-08-01T04:47:21;16.41;85.57
80743;SHT31;70142;50.894;6.052;2023-08-01T04:49:54;16.47;85.65
80743;SHT31;70142;50.894;6.052;2023-08-01T04:52:27;16.41;85.37
80743;SHT31;70142;50.894;6.052;2023-08-01T04:55:04;16.36;85.12
80743;SHT31;70142;50.894;6.052;2023-08-01T04:57:38;16.47;85.51
80743;SHT31;70142;50.894;6.052;2023-08-01T05:00:12;16.66;84.60
80743;SHT31;70142;50.894;6.052;2023-08-01T05:02:45;16.83;83.94
80743;SHT31;70142;50.894;6.052;2023-08-01T05:05:19;16.89;83.32
80743;SHT31;70142;50.894;6.052;2023-08-01T05:07:52;16.77;83.82
80743;SHT31;70142;50.894;6.052;2023-08-01T05:10:25;17.00;83.27
80743;SHT31;70142;50.894;6.052;2023-08-01T05:13:00;17.09;83.05
80743;SHT31;70142;50.894;6.052;2023-08-01T05:15:34;16.86;83.30
80743;SHT31;70142;50.894;6.052;2023-08-01T05:18:07;16.66;83.78
80743;SHT31;70142;50.894;6.052;2023-08-01T05:20:40;16.71;84.32
80743;SHT31;70142;50.894;6.052;2023-08-01T05:23:14;16.72;83.74
80743;SHT31;70142;50.894;6.052;2023-08-01T05:25:47;16.72;83.86
80743;SHT31;70142;50.894;6.052;2023-08-01T05:28:22;16.79;83.52
80743;SHT31;70142;50.894;6.052;2023-08-01T05:30:55;16.72;83.21
80743;SHT31;70142;50.894;6.052;2023-08-01T05:33:28;16.66;83.72
80743;SHT31;70142;50.894;6.052;2023-08-01T05:36:01;16.89;82.93
80743;SHT31;70142;50.894;6.052;2023-08-01T05:38:35;17.07;82.50
80743;SHT31;70142;50.894;6.052;2023-08-01T05:41:08;17.27;81.80
80743;SHT31;70142;50.894;6.052;2023-08-01T05:43:42;16.99;82.49
80743;SHT31;70142;50.894;6.052;2023-08-01T05:46:16;16.97;82.89
80743;SHT31;70142;50.894;6.052;2023-08-01T05:48:49;17.02;82.35
80743;SHT31;70142;50.894;6.052;2023-08-01T05:51:22;17.36;81.30
80743;SHT31;70142;50.894;6.052;2023-08-01T05:53:55;17.16;81.83
80743;SHT31;70142;50.894;6.052;2023-08-01T05:56:28;16.97;82.26
80743;SHT31;70142;50.894;6.052;2023-08-01T05:59:03;16.79;82.57
80743;SHT31;70142;50.894;6.052;2023-08-01T06:01:37;16.83;83.33
80743;SHT31;70142;50.894;6.052;2023-08-01T06:04:11;16.93;82.44
80743;SHT31;70142;50.894;6.052;2023-08-01T06:06:44;17.20;82.39
80743;SHT31;70142;50.894;6.052;2023-08-01T06:09:17;17.36;81.23
80743;SHT31;70142;50.894;6.052;2023-08-01T06:11:52;17.37;81.36
80743;SHT31;70142;50.894;6.052;2023-08-01T06:14:27;17.39;81.69
80743;SHT31;70142;50.894;6.052;2023-08-01T06:17:00;17.37;81.40
80743;SHT31;70142;50.894;6.052;2023-08-01T06:19:33;17.43;81.81
80743;SHT31;70142;50.894;6.052;2023-08-01T06:22:06;17.44;81.69
80743;SHT31;70142;50.894;6.052;2023-08-01T06:24:40;17.41;81.58
80743;SHT31;70142;50.894;6.052;2023-08-01T06:27:15;17.24;81.91
80743;SHT31;70142;50.894;6.052;2023-08-01T06:29:53;17.26;82.39
80743;SHT31;70142;50.894;6.052;2023-08-01T06:32:26;17.29;82.00
80743;SHT31;70142;50.894;6.052;2023-08-01T06:35:00;17.61;80.81
80743;SHT31;70142;50.894;6.052;2023-08-01T06:37:33;17.55;80.42
80743;SHT31;70142;50.894;6.052;2023-08-01T06:40:07;17.51;80.25
80743;SHT31;70142;50.894;6.052;2023-08-01T06:42:40;17.60;80.37
80743;SHT31;70142;50.894;6.052;2023-08-01T06:45:18;17.46;80.40
80743;SHT31;70142;50.894;6.052;2023-08-01T06:47:51;17.58;80.29
80743;SHT31;70142;50.894;6.052;2023-08-01T06:50:25;17.55;79.17
80743;SHT31;70142;50.894;6.052;2023-08-01T06:52:58;17.47;79.33
80743;SHT31;70142;50.894;6.052;2023-08-01T06:55:32;17.81;78.87
80743;SHT31;70142;50.894;6.052;2023-08-01T06:58:06;18.46;76.76
80743;SHT31;70142;50.894;6.052;2023-08-01T07:00:40;18.74;74.39
80743;SHT31;70142;50.894;6.052;2023-08-01T07:03:14;18.41;76.09
80743;SHT31;70142;50.894;6.052;2023-08-01T07:05:47;18.87;74.60
80743;SHT31;70142;50.894;6.052;2023-08-01T07:08:21;18.83;74.44
80743;SHT31;70142;50.894;6.052;2023-08-01T07:10:54;18.74;75.68
80743;SHT31;70142;50.894;6.052;2023-08-01T07:13:27;18.65;75.51
80743;SHT31;70142;50.894;6.052;2023-08-01T07:16:02;18.69;74.54
80743;SHT31;70142;50.894;6.052;2023-08-01T07:18:35;18.22;76.01
80743;SHT31;70142;50.894;6.052;2023-08-01T07:21:09;18.11;76.50
80743;SHT31;70142;50.894;6.052;2023-08-01T07:23:42;17.85;76.98
80743;SHT31;70142;50.894;6.052;2023-08-01T07:26:16;17.87;77.47
80743;SHT31;70142;50.894;6.052;2023-08-01T07:28:49;17.92;77.65
80743;SHT31;70142;50.894;6.052;2023-08-01T07:31:24;17.98;77.17
80743;SHT31;70142;50.894;6.052;2023-08-01T07:33:57;17.92;77.45
80743;SHT31;70142;50.894;6.052;2023-08-01T07:36:33;18.18;76.86
80743;SHT31;70142;50.894;6.052;2023-08-01T07:39:07;18.79;75.26
80743;SHT31;70142;50.894;6.052;2023-08-01T07:41:40;18.90;74.67
80743;SHT31;70142;50.894;6.052;2023-08-01T07:44:13;18.87;74.81
80743;SHT31;70142;50.894;6.052;2023-08-01T07:46:50;19.20;73.77
80743;SHT31;70142;50.894;6.052;2023-08-01T07:49:23;19.39;73.75
80743;SHT31;70142;50.894;6.052;2023-08-01T07:51:56;19.37;73.16
80743;SHT31;70142;50.894;6.052;2023-08-01T07:54:30;19.30;72.50
80743;SHT31;70142;50.894;6.052;2023-08-01T07:57:03;19.61;71.17
80743;SHT31;70142;50.894;6.052;2023-08-01T07:59:37;19.08;73.46
80743;SHT31;70142;50.894;6.052;2023-08-01T08:02:11;19.06;73.48
80743;SHT31;70142;50.894;6.052;2023-08-01T08:04:44;19.06;73.55
80743;SHT31;70142;50.894;6.052;2023-08-01T08:07:20;19.23;73.71
80743;SHT31;70142;50.894;6.052;2023-08-01T08:09:53;19.08;73.45
80743;SHT31;70142;50.894;6.052;2023-08-01T08:12:27;19.26;74.33
80743;SHT31;70142;50.894;6.052;2023-08-01T08:15:02;19.13;72.51
80743;SHT31;70142;50.894;6.052;2023-08-01T08:17:37;18.73;74.10
80743;SHT31;70142;50.894;6.052;2023-08-01T08:20:10;18.84;74.04
80743;SHT31;70142;50.894;6.052;2023-08-01T08:22:43;19.41;72.36
80743;SHT31;70142;50.894;6.052;2023-08-01T08:25:16;20.13;70.35
80743;SHT31;70142;50.894;6.052;2023-08-01T08:27:50;20.37;69.92
80743;SHT31;70142;50.894;6.052;2023-08-01T08:30:23;20.16;70.38
80743;SHT31;70142;50.894;6.052;2023-08-01T08:32:58;19.62;71.25
80743;SHT31;70142;50.894;6.052;2023-08-01T08:35:36;19.68;72.39
80743;SHT31;70142;50.894;6.052;2023-08-01T08:38:09;19.88;71.00
80743;SHT31;70142;50.894;6.052;2023-08-01T08:40:52;19.83;70.61
80743;SHT31;70142;50.894;6.052;2023-08-01T08:43:31;19.68;71.95
80743;SHT31;70142;50.894;6.052;2023-08-01T08:46:05;19.47;71.50
80743;SHT31;70142;50.894;6.052;2023-08-01T08:48:41;19.69;72.03
80743;SHT31;70142;50.894;6.052;2023-08-01T08:51:17;19.75;71.70
80743;SHT31;70142;50.894;6.052;2023-08-01T08:53:53;19.31;72.01
80743;SHT31;70142;50.894;6.052;2023-08-01T08:56:28;19.13;72.32
80743;SHT31;70142;50.894;6.052;2023-08-01T08:59:01;19.16;73.14
80743;SHT31;70142;50.894;6.052;2023-08-01T09:01:35;19.11;73.53
80743;SHT31;70142;50.894;6.052;2023-08-01T09:04:09;18.99;72.99
80743;SHT31;70142;50.894;6.052;2023-08-01T09:06:45;19.00;71.54
80743;SHT31;70142;50.894;6.052;2023-08-01T09:09:22;19.14;71.98
80743;SHT31;70142;50.894;6.052;2023-08-01T09:11:58;19.32;71.30
80743;SHT31;70142;50.894;6.052;2023-08-01T09:14:32;19.93;70.35
80743;SHT31;70142;50.894;6.052;2023-08-01T09:17:07;20.44;67.23
80743;SHT31;70142;50.894;6.052;2023-08-01T09:19:42;21.23;65.95
80743;SHT31;70142;50.894;6.052;2023-08-01T09:22:16;21.37;64.93
80743;SHT31;70142;50.894;6.052;2023-08-01T09:24:51;21.00;64.55
80743;SHT31;70142;50.894;6.052;2023-08-01T09:27:33;20.69;66.65
80743;SHT31;70142;50.894;6.052;2023-08-01T09:30:09;20.46;68.17
80743;SHT31;70142;50.894;6.052;2023-08-01T09:32:52;21.72;64.43
80743;SHT31;70142;50.894;6.052;2023-08-01T09:35:26;22.19;62.44
80743;SHT31;70142;50.894;6.052;2023-08-01T09:38:00;21.59;63.15
80743;SHT31;70142;50.894;6.052;2023-08-01T09:40:36;21.78;61.81
80743;SHT31;70142;50.894;6.052;2023-08-01T09:43:10;21.90;63.81
80743;SHT31;70142;50.894;6.052;2023-08-01T09:45:50;21.85;64.00
80743;SHT31;70142;50.894;6.052;2023-08-01T09:48:26;21.37;65.10
80743;SHT31;70142;50.894;6.052;2023-08-01T09:51:08;22.07;63.64
80743;SHT31;70142;50.894;6.052;2023-08-01T09:53:49;21.74;62.12
80743;SHT31;70142;50.894;6.052;2023-08-01T09:56:26;21.42;63.64
80743;SHT31;70142;50.894;6.052;2023-08-01T09:59:01;21.75;62.50
80743;SHT31;70142;50.894;6.052;2023-08-01T10:01:36;22.43;60.23
80743;SHT31;70142;50.894;6.052;2023-08-01T10:04:12;22.23;60.56
80743;SHT31;70142;50.894;6.052;2023-08-01T10:06:54;22.17;60.28
80743;SHT31;70142;50.894;6.052;2023-08-01T10:09:30;22.43;60.69
80743;SHT31;70142;50.894;6.052;2023-08-01T10:12:05;22.16;61.55
80743;SHT31;70142;50.894;6.052;2023-08-01T10:14:39;22.35;60.34
80743;SHT31;70142;50.894;6.052;2023-08-01T10:17:14;22.37;59.00
80743;SHT31;70142;50.894;6.052;2023-08-01T10:19:49;22.80;57.72
80743;SHT31;70142;50.894;6.052;2023-08-01T10:22:24;22.39;58.22
80743;SHT31;70142;50.894;6.052;2023-08-01T10:24:58;22.36;57.40
80743;SHT31;70142;50.894;6.052;2023-08-01T10:27:31;21.76;60.89
80743;SHT31;70142;50.894;6.052;2023-08-01T10:30:07;22.44;59.72
80743;SHT31;70142;50.894;6.052;2023-08-01T10:32:41;22.65;59.95
80743;SHT31;70142;50.894;6.052;2023-08-01T10:35:15;23.14;57.70
80743;SHT31;70142;50.894;6.052;2023-08-01T10:37:50;23.32;58.45
80743;SHT31;70142;50.894;6.052;2023-08-01T10:40:32;23.73;57.46
80743;SHT31;70142;50.894;6.052;2023-08-01T10:43:19;23.24;58.72
80743;SHT31;70142;50.894;6.052;2023-08-01T10:46:01;22.60;57.46
80743;SHT31;70142;50.894;6.052;2023-08-01T10:48:34;23.12;57.13
80743;SHT31;70142;50.894;6.052;2023-08-01T10:51:08;23.49;57.20
80743;SHT31;70142;50.894;6.052;2023-08-01T10:53:42;22.77;58.63
80743;SHT31;70142;50.894;6.052;2023-08-01T10:56:17;21.99;60.25
80743;SHT31;70142;50.894;6.052;2023-08-01T10:58:52;21.39;61.63
80743;SHT31;70142;50.894;6.052;2023-08-01T11:01:25;21.25;64.22
80743;SHT31;70142;50.894;6.052;2023-08-01T11:04:00;21.89;64.80
80743;SHT31;70142;50.894;6.052;2023-08-01T11:06:43;22.49;63.92
80743;SHT31;70142;50.894;6.052;2023-08-01T11:09:19;22.53;62.96
80743;SHT31;70142;50.894;6.052;2023-08-01T11:11:55;22.43;64.38
80743;SHT31;70142;50.894;6.052;2023-08-01T11:14:29;22.98;62.89
80743;SHT31;70142;50.894;6.052;2023-08-01T11:17:02;23.16;61.57
80743;SHT31;70142;50.894;6.052;2023-08-01T11:19:36;23.41;59.90
80743;SHT31;70142;50.894;6.052;2023-08-01T11:22:09;22.41;60.78
80743;SHT31;70142;50.894;6.052;2023-08-01T11:24:50;22.05;61.46
80743;SHT31;70142;50.894;6.052;2023-08-01T11:27:24;21.95;62.40
80743;SHT31;70142;50.894;6.052;2023-08-01T11:29:59;21.78;62.72
80743;SHT31;70142;50.894;6.052;2023-08-01T11:32:33;21.35;65.44
80743;SHT31;70142;50.894;6.052;2023-08-01T11:35:07;19.71;74.36
80743;SHT31;70142;50.894;6.052;2023-08-01T11:37:40;18.83;76.49
80743;SHT31;70142;50.894;6.052;2023-08-01T11:40:16;19.24;80.63
80743;SHT31;70142;50.894;6.052;2023-08-01T11:42:49;19.34;77.46
80743;SHT31;70142;50.894;6.052;2023-08-01T11:45:24;19.23;77.20
80743;SHT31;70142;50.894;6.052;2023-08-01T11:47:58;19.34;79.29
80743;SHT31;70142;50.894;6.052;2023-08-01T11:50:31;19.55;75.85
80743;SHT31;70142;50.894;6.052;2023-08-01T11:53:04;19.68;76.66
80743;SHT31;70142;50.894;6.052;2023-08-01T11:55:39;19.92;76.54
80743;SHT31;70142;50.894;6.052;2023-08-01T11:58:12;20.33;74.39
80743;SHT31;70142;50.894;6.052;2023-08-01T12:00:46;20.84;72.19
80743;SHT31;70142;50.894;6.052;2023-08-01T12:03:19;21.35;71.78
80743;SHT31;70142;50.894;6.052;2023-08-01T12:06:02;21.76;68.01
80743;SHT31;70142;50.894;6.052;2023-08-01T12:08:36;22.09;71.55
80743;SHT31;70142;50.894;6.052;2023-08-01T12:11:22;22.46;64.78
80743;SHT31;70142;50.894;6.052;2023-08-01T12:14:03;22.41;67.44
80743;SHT31;70142;50.894;6.052;2023-08-01T12:16:37;22.80;64.66
80743;SHT31;70142;50.894;6.052;2023-08-01T12:19:17;22.75;65.80
80743;SHT31;70142;50.894;6.052;2023-08-01T12:21:51;22.77;63.49
80743;SHT31;70142;50.894;6.052;2023-08-01T12:24:24;22.81;62.52
80743;SHT31;70142;50.894;6.052;2023-08-01T12:26:58;23.86;62.30
80743;SHT31;70142;50.894;6.052;2023-08-01T12:29:32;23.67;60.15
80743;SHT31;70142;50.894;6.052;2023-08-01T12:32:05;23.21;59.22
80743;SHT31;70142;50.894;6.052;2023-08-01T12:34:39;23.00;61.14
80743;SHT31;70142;50.894;6.052;2023-08-01T12:37:12;22.56;61.65
80743;SHT31;70142;50.894;6.052;2023-08-01T12:39:45;22.95;61.88
80743;SHT31;70142;50.894;6.052;2023-08-01T12:42:20;22.94;58.76
80743;SHT31;70142;50.894;6.052;2023-08-01T12:44:53;23.65;57.99
80743;SHT31;70142;50.894;6.052;2023-08-01T12:47:26;24.09;59.43
80743;SHT31;70142;50.894;6.052;2023-08-01T12:49:59;24.07;55.52
80743;SHT31;70142;50.894;6.052;2023-08-01T12:52:32;24.27;55.94
80743;SHT31;70142;50.894;6.052;2023-08-01T12:55:06;23.05;57.75
80743;SHT31;70142;50.894;6.052;2023-08-01T12:57:41;22.32;59.33
80743;SHT31;70142;50.894;6.052;2023-08-01T13:00:15;21.95;60.99
80743;SHT31;70142;50.894;6.052;2023-08-01T13:02:51;21.51;61.16
80743;SHT31;70142;50.894;6.052;2023-08-01T13:05:24;21.49;61.54
80743;SHT31;70142;50.894;6.052;2023-08-01T13:07:57;21.27;61.36
80743;SHT31;70142;50.894;6.052;2023-08-01T13:10:31;21.21;62.13
80743;SHT31;70142;50.894;6.052;2023-08-01T13:13:08;20.76;64.58
80743;SHT31;70142;50.894;6.052;2023-08-01T13:15:41;20.56;66.00
80743;SHT31;70142;50.894;6.052;2023-08-01T13:18:14;20.53;67.75
80743;SHT31;70142;50.894;6.052;2023-08-01T13:20:47;19.82;70.60
80743;SHT31;70142;50.894;6.052;2023-08-01T13:23:23;19.62;72.70
80743;SHT31;70142;50.894;6.052;2023-08-01T13:25:56;19.68;72.59
80743;SHT31;70142;50.894;6.052;2023-08-01T13:28:35;19.77;71.03
80743;SHT31;70142;50.894;6.052;2023-08-01T13:31:08;19.74;72.23
80743;SHT31;70142;50.894;6.052;2023-08-01T13:33:42;19.74;73.22
80743;SHT31;70142;50.894;6.052;2023-08-01T13:36:17;19.69;71.84
80743;SHT31;70142;50.894;6.052;2023-08-01T13:38:50;19.75;71.93
80743;SHT31;70142;50.894;6.052;2023-08-01T13:41:24;19.96;69.44
80743;SHT31;70142;50.894;6.052;2023-08-01T13:43:58;20.16;69.45
80743;SHT31;70142;50.894;6.052;2023-08-01T13:46:31;20.15;71.06
80743;SHT31;70142;50.894;6.052;2023-08-01T13:49:05;20.10;69.87
80743;SHT31;70142;50.894;6.052;2023-08-01T13:51:38;20.10;70.12
80743;SHT31;70142;50.894;6.052;2023-08-01T13:54:11;20.30;70.90
80743;SHT31;70142;50.894;6.052;2023-08-01T13:56:44;20.34;68.06
80743;SHT31;70142;50.894;6.052;2023-08-01T13:59:19;20.28;68.91
80743;SHT31;70142;50.894;6.052;2023-08-01T14:01:53;20.57;67.77
80743;SHT31;70142;50.894;6.052;2023-08-01T14:04:26;21.45;65.89
80743;SHT31;70142;50.894;6.052;2023-08-01T14:07:02;22.29;61.86
80743;SHT31;70142;50.894;6.052;2023-08-01T14:09:35;22.98;59.36
80743;SHT31;70142;50.894;6.052;2023-08-01T14:12:08;22.88;60.84
80743;SHT31;70142;50.894;6.052;2023-08-01T14:14:43;22.53;61.55
80743;SHT31;70142;50.894;6.052;2023-08-01T14:17:16;22.21;60.89
80743;SHT31;70142;50.894;6.052;2023-08-01T14:19:49;21.74;61.17
80743;SHT31;70142;50.894;6.052;2023-08-01T14:22:22;21.59;63.41
80743;SHT31;70142;50.894;6.052;2023-08-01T14:24:56;21.41;63.66
80743;SHT31;70142;50.894;6.052;2023-08-01T14:27:29;21.24;63.05
80743;SHT31;70142;50.894;6.052;2023-08-01T14:30:04;21.10;64.07
80743;SHT31;70142;50.894;6.052;2023-08-01T14:32:38;21.07;63.55
80743;SHT31;70142;50.894;6.052;2023-08-01T14:35:11;20.84;62.72
80743;SHT31;70142;50.894;6.052;2023-08-01T14:37:45;20.53;63.51
80743;SHT31;70142;50.894;6.052;2023-08-01T14:40:20;20.15;63.01
80743;SHT31;70142;50.894;6.052;2023-08-01T14:42:53;19.64;64.23
80743;SHT31;70142;50.894;6.052;2023-08-01T14:45:28;19.65;66.96
80743;SHT31;70142;50.894;6.052;2023-08-01T14:48:01;19.55;65.20
80743;SHT31;70142;50.894;6.052;2023-08-01T14:50:35;19.38;66.89
80743;SHT31;70142;50.894;6.052;2023-08-01T14:53:08;19.35;66.85
80743;SHT31;70142;50.894;6.052;2023-08-01T14:55:41;19.41;68.66
80743;SHT31;70142;50.894;6.052;2023-08-01T14:58:14;19.48;66.71
80743;SHT31;70142;50.894;6.052;2023-08-01T15:00:49;19.67;67.29
80743;SHT31;70142;50.894;6.052;2023-08-01T15:03:22;19.86;67.00
80743;SHT31;70142;50.894;6.052;2023-08-01T15:05:56;20.06;66.17
80743;SHT31;70142;50.894;6.052;2023-08-01T15:08:29;20.26;66.31
80743;SHT31;70142;50.894;6.052;2023-08-01T15:11:04;20.60;65.28
80743;SHT31;70142;50.894;6.052;2023-08-01T15:13:37;21.58;61.69
80743;SHT31;70142;50.894;6.052;2023-08-01T15:16:12;22.90;58.75
80743;SHT31;70142;50.894;6.052;2023-08-01T15:18:46;23.19;58.83
80743;SHT31;70142;50.894;6.052;2023-08-01T15:21:19;23.14;58.76
80743;SHT31;70142;50.894;6.052;2023-08-01T15:23:52;22.09;59.80
80743;SHT31;70142;50.894;6.052;2023-08-01T15:26:26;21.46;61.60
80743;SHT31;70142;50.894;6.052;2023-08-01T15:28:59;21.32;62.20
80743;SHT31;70142;50.894;6.052;2023-08-01T15:31:34;21.14;62.99
80743;SHT31;70142;50.894;6.052;2023-08-01T15:34:08;21.05;62.36
80743;SHT31;70142;50.894;6.052;2023-08-01T15:36:46;21.05;62.39
80743;SHT31;70142;50.894;6.052;2023-08-01T15:39:20;21.54;60.94
80743;SHT31;70142;50.894;6.052;2023-08-01T15:41:53;22.36;58.48
80743;SHT31;70142;50.894;6.052;2023-08-01T15:44:26;22.59;58.36
80743;SHT31;70142;50.894;6.052;2023-08-01T15:47:05;22.64;57.56
80743;SHT31;70142;50.894;6.052;2023-08-01T15:49:38;22.71;57.65
80743;SHT31;70142;50.894;6.052;2023-08-01T15:52:14;22.77;57.47
80743;SHT31;70142;50.894;6.052;2023-08-01T15:54:47;22.54;58.22
80743;SHT31;70142;50.894;6.052;2023-08-01T15:57:20;22.14;58.16
80743;SHT31;70142;50.894;6.052;2023-08-01T15:59:53;21.90;58.24
80743;SHT31;70142;50.894;6.052;2023-08-01T16:02:28;21.62;58.52
80743;SHT31;70142;50.894;6.052;2023-08-01T16:05:01;21.32;60.63
80743;SHT31;70142;50.894;6.052;2023-08-01T16:07:35;21.25;59.97
80743;SHT31;70142;50.894;6.052;2023-08-01T16:10:08;20.91;59.09
80743;SHT31;70142;50.894;6.052;2023-08-01T16:12:41;20.42;59.11
80743;SHT31;70142;50.894;6.052;2023-08-01T16:15:14;20.25;60.00